TimeCEST,TemperatureF,Dew PointF,Humidity,Sea Level PressureIn,VisibilityMPH,Wind Direction,Wind SpeedMPH,Gust SpeedMPH,PrecipitationIn,Events,Conditions,WindDirDegrees,DateUTC
12:00 AM,46.4,46.4,100,30.09,0.3,Calm,Calm,-,N/A,Fog,Fog,0,2012-10-19 22:00:00
1:00 AM,41.0,41.0,100,30.09,0.2,Calm,Calm,-,N/A,Fog,Fog,0,2012-10-19 23:00:00
2:00 AM,41.0,41.0,100,30.12,0.1,Variable,1.2,-,N/A,Fog,Fog,0,2012-10-20 00:00:00
3:00 AM,42.8,42.8,100,30.09,0.1,Calm,Calm,-,N/A,Fog,Fog,0,2012-10-20 01:00:00
4:00 AM,41.0,41.0,100,30.09,0.1,Calm,Calm,-,N/A,Fog,Fog,0,2012-10-20 02:00:00
5:00 AM,42.8,41.0,93,30.09,0.1,Calm,Calm,-,N/A,Fog,Fog,0,2012-10-20 03:00:00
6:00 AM,41.0,41.0,100,30.09,0.1,Calm,Calm,-,N/A,Fog,Fog,0,2012-10-20 04:00:00
7:00 AM,42.8,42.8,100,30.09,0.1,Calm,Calm,-,N/A,Fog,Fog,0,2012-10-20 05:00:00
8:00 AM,42.8,42.8,100,30.12,0.1,West,3.5,-,N/A,Fog,Fog,260,2012-10-20 06:00:00
9:00 AM,41.0,41.0,100,30.12,0.1,West,2.3,-,N/A,Fog,Fog,260,2012-10-20 07:00:00
10:00 AM,42.8,42.8,100,30.12,0.1,Variable,2.3,-,N/A,Fog,Fog,0,2012-10-20 08:00:00
11:00 AM,44.6,44.6,100,30.15,0.2,Variable,2.3,-,N/A,Fog,Fog,0,2012-10-20 09:00:00
12:00 PM,46.4,46.4,100,30.15,0.2,West,5.8,-,N/A,Fog,Fog,270,2012-10-20 10:00:00
1:00 PM,44.6,44.6,100,30.15,0.2,WNW,3.5,-,N/A,Fog,Fog,290,2012-10-20 11:00:00
2:00 PM,48.2,46.4,93,30.15,0.3,West,3.5,-,N/A,Fog,Fog,270,2012-10-20 12:00:00
3:00 PM,46.4,46.4,100,30.15,0.4,WSW,3.5,-,N/A,Fog,Fog,240,2012-10-20 13:00:00
4:00 PM,48.2,48.2,100,30.15,0.3,Variable,2.3,-,N/A,Fog,Fog,0,2012-10-20 14:00:00
5:00 PM,46.4,46.4,100,30.15,0.2,WNW,4.6,-,N/A,Fog,Fog,300,2012-10-20 15:00:00
7:00 PM,48.2,48.2,100,30.15,0.1,Calm,Calm,-,N/A,Fog,Fog,0,2012-10-20 17:00:00
8:00 PM,48.2,48.2,100,30.15,0.1,Variable,1.2,-,N/A,Fog,Fog,0,2012-10-20 18:00:00
9:00 PM,44.6,44.6,100,30.15,0.1,Variable,1.2,-,N/A,Fog,Fog,0,2012-10-20 19:00:00
10:00 PM,44.6,44.6,100,30.15,0.1,Calm,Calm,-,N/A,Fog,Fog,0,2012-10-20 20:00:00
11:00 PM,48.2,46.4,93,30.15,0.1,West,2.3,-,N/A,Fog,Fog,260,2012-10-20 21:00:00